createdAt,value
2018-12-07T00:02:00.000Z,3.9
2018-12-07T00:07:00.000Z,3.9
2018-12-07T00:12:00.000Z,3.9
2018-12-07T00:17:00.000Z,3.9
2018-12-07T00:23:00.000Z,3.9
2018-12-07T00:28:00.000Z,3.9
2018-12-07T00:33:00.000Z,3.9
2018-12-07T00:38:00.000Z,3.9
2018-12-07T00:43:00.000Z,3.8
2018-12-07T00:48:00.000Z,3.8
2018-12-07T00:53:00.000Z,3.7
2018-12-07T00:58:00.000Z,3.7
2018-12-07T01:03:00.000Z,3.7
2018-12-07T01:08:00.000Z,3.7
2018-12-07T01:13:00.000Z,3.6
2018-12-07T01:18:00.000Z,3.6
2018-12-07T01:23:00.000Z,3.6
2018-12-07T01:28:00.000Z,3.5
2018-12-07T01:33:00.000Z,3.5
2018-12-07T01:38:00.000Z,3.4
2018-12-07T01:43:00.000Z,3.4
2018-12-07T01:48:00.000Z,3.3
2018-12-07T01:53:00.000Z,3.4
2018-12-07T01:58:00.000Z,3.4
2018-12-07T02:03:00.000Z,3.4
2018-12-07T02:08:00.000Z,3.6
2018-12-07T02:13:00.000Z,3.7
2018-12-07T02:18:00.000Z,3.6
2018-12-07T02:23:00.000Z,3.6
2018-12-07T02:28:00.000Z,3.6
2018-12-07T02:33:00.000Z,3.5
2018-12-07T02:38:00.000Z,3.5
2018-12-07T02:43:00.000Z,3.5
2018-12-07T02:48:00.000Z,3.5
2018-12-07T02:53:00.000Z,3.5
2018-12-07T02:58:00.000Z,3.4
2018-12-07T03:03:00.000Z,3.5
2018-12-07T03:08:00.000Z,3.5
2018-12-07T03:13:00.000Z,3.5
2018-12-07T03:18:00.000Z,3.5
2018-12-07T03:23:00.000Z,3.4
2018-12-07T03:28:00.000Z,3.4
2018-12-07T03:33:00.000Z,3.4
2018-12-07T03:38:00.000Z,3.3
2018-12-07T03:43:00.000Z,3.3
2018-12-07T03:48:00.000Z,3.2
2018-12-07T03:53:00.000Z,3.2
2018-12-07T03:58:00.000Z,3.3
2018-12-07T04:03:00.000Z,3.3
2018-12-07T04:08:00.000Z,3.2
2018-12-07T04:13:00.000Z,3.2
2018-12-07T04:18:00.000Z,3.2
2018-12-07T04:23:00.000Z,3.3
2018-12-07T04:28:00.000Z,3.3
2018-12-07T04:33:00.000Z,3.3
2018-12-07T04:38:00.000Z,3.3
2018-12-07T04:43:00.000Z,3.4
2018-12-07T04:48:00.000Z,3.3
2018-12-07T04:53:00.000Z,3.3
2018-12-07T04:58:00.000Z,3.2
2018-12-07T05:03:00.000Z,3.2
2018-12-07T05:08:00.000Z,3.3
2018-12-07T05:13:00.000Z,3.3
2018-12-07T05:18:00.000Z,3.3
2018-12-07T05:23:00.000Z,3.3
2018-12-07T05:28:00.000Z,3.3
2018-12-07T05:33:00.000Z,3.4
2018-12-07T05:38:00.000Z,3.4
2018-12-07T05:43:00.000Z,3.5
2018-12-07T05:48:00.000Z,3.5
2018-12-07T05:53:00.000Z,3.5
2018-12-07T05:58:00.000Z,3.5
2018-12-07T06:03:00.000Z,3.5
2018-12-07T06:08:00.000Z,3.5
2018-12-07T06:13:00.000Z,3.4
2018-12-07T06:18:00.000Z,3.5
2018-12-07T06:24:00.000Z,3.6
2018-12-07T06:29:00.000Z,3.8
2018-12-07T06:34:00.000Z,3.9
2018-12-07T06:39:00.000Z,4.0
2018-12-07T06:44:00.000Z,4.1
2018-12-07T06:49:00.000Z,4.1
2018-12-07T06:54:00.000Z,4.1
2018-12-07T06:59:00.000Z,4.2
2018-12-07T07:04:00.000Z,4.2
2018-12-07T07:09:00.000Z,4.2
2018-12-07T07:14:00.000Z,4.3
2018-12-07T07:19:00.000Z,4.3
2018-12-07T07:24:00.000Z,4.4
2018-12-07T07:29:00.000Z,4.5
2018-12-07T07:34:00.000Z,4.6
2018-12-07T07:39:00.000Z,4.7
2018-12-07T07:44:00.000Z,4.7
2018-12-07T07:49:00.000Z,4.7
2018-12-07T07:54:00.000Z,4.7
2018-12-07T07:59:00.000Z,4.8
2018-12-07T08:04:00.000Z,4.9
2018-12-07T08:09:00.000Z,4.9
2018-12-07T08:14:00.000Z,4.9
2018-12-07T08:19:00.000Z,4.9
2018-12-07T08:24:00.000Z,5.0
2018-12-07T08:29:00.000Z,5.0
2018-12-07T08:34:00.000Z,5.1
2018-12-07T08:39:00.000Z,5.2
2018-12-07T08:44:00.000Z,5.2
2018-12-07T08:49:00.000Z,5.2
2018-12-07T08:54:00.000Z,5.3
2018-12-07T08:59:00.000Z,5.3
2018-12-07T09:04:00.000Z,5.4
2018-12-07T09:09:00.000Z,5.6
2018-12-07T09:14:00.000Z,5.7
2018-12-07T09:19:00.000Z,6.0
2018-12-07T09:24:00.000Z,6.2
2018-12-07T09:29:00.000Z,6.3
2018-12-07T09:34:00.000Z,6.4
2018-12-07T09:39:00.000Z,6.6
2018-12-07T09:44:00.000Z,6.8
2018-12-07T09:49:00.000Z,6.8
2018-12-07T09:54:00.000Z,6.9
2018-12-07T09:59:00.000Z,7.1
2018-12-07T10:04:00.000Z,7.2
2018-12-07T10:09:00.000Z,7.3
2018-12-07T10:14:00.000Z,7.4
2018-12-07T10:19:00.000Z,7.7
2018-12-07T10:24:00.000Z,8.0
2018-12-07T10:29:00.000Z,8.3
2018-12-07T10:34:00.000Z,8.4
2018-12-07T10:39:00.000Z,8.5
2018-12-07T10:44:00.000Z,8.6
2018-12-07T10:49:00.000Z,8.5
2018-12-07T10:54:00.000Z,8.1
2018-12-07T10:59:00.000Z,7.9
2018-12-07T11:04:00.000Z,7.7
2018-12-07T11:09:00.000Z,7.8
2018-12-07T11:14:00.000Z,8.0
2018-12-07T11:19:00.000Z,8.1
2018-12-07T11:24:00.000Z,8.1
2018-12-07T11:29:00.000Z,8.2
2018-12-07T11:34:00.000Z,8.3
2018-12-07T11:39:00.000Z,8.4
2018-12-07T11:44:00.000Z,8.5
2018-12-07T11:49:00.000Z,8.6
2018-12-07T11:54:00.000Z,8.6
2018-12-07T11:59:00.000Z,8.7
2018-12-07T12:04:00.000Z,8.6
2018-12-07T12:09:00.000Z,8.6
2018-12-07T12:14:00.000Z,8.6
2018-12-07T12:20:00.000Z,8.6
2018-12-07T12:25:00.000Z,8.6
2018-12-07T12:30:00.000Z,8.6
2018-12-07T12:35:00.000Z,8.5
2018-12-07T12:40:00.000Z,8.6
2018-12-07T12:45:00.000Z,8.6
2018-12-07T12:50:00.000Z,8.6
2018-12-07T12:55:00.000Z,8.7
2018-12-07T13:00:00.000Z,8.6
2018-12-07T13:05:00.000Z,8.5
2018-12-07T13:10:00.000Z,8.5
2018-12-07T13:15:00.000Z,8.5
2018-12-07T13:20:00.000Z,8.5
2018-12-07T13:25:00.000Z,8.6
2018-12-07T13:30:00.000Z,8.5
2018-12-07T13:35:00.000Z,8.5
2018-12-07T13:40:00.000Z,8.4
2018-12-07T13:45:00.000Z,8.5
2018-12-07T13:50:00.000Z,8.3
2018-12-07T13:55:00.000Z,8.2
2018-12-07T14:00:00.000Z,8.0
2018-12-07T14:05:00.000Z,8.0
2018-12-07T14:10:00.000Z,7.9
2018-12-07T14:15:00.000Z,7.9
2018-12-07T14:20:00.000Z,7.8
2018-12-07T14:25:00.000Z,7.8
2018-12-07T14:30:00.000Z,7.8
2018-12-07T14:35:00.000Z,7.7
2018-12-07T14:40:00.000Z,7.6
2018-12-07T14:45:00.000Z,7.6
2018-12-07T14:50:00.000Z,7.5
2018-12-07T14:55:00.000Z,7.5
2018-12-07T15:00:00.000Z,7.4
2018-12-07T15:05:00.000Z,7.3
2018-12-07T15:10:00.000Z,7.2
2018-12-07T15:15:00.000Z,7.1
2018-12-07T15:20:00.000Z,7.0
2018-12-07T15:25:00.000Z,6.9
2018-12-07T15:30:00.000Z,6.9
2018-12-07T15:35:00.000Z,6.9
2018-12-07T15:40:00.000Z,6.9
2018-12-07T15:45:00.000Z,6.9
2018-12-07T15:50:00.000Z,6.8
2018-12-07T15:55:00.000Z,6.8
2018-12-07T16:00:00.000Z,6.8
2018-12-07T16:05:00.000Z,6.8
2018-12-07T16:10:00.000Z,6.8
2018-12-07T16:15:00.000Z,6.7
2018-12-07T16:20:00.000Z,6.7
2018-12-07T16:25:00.000Z,6.6
2018-12-07T16:30:00.000Z,6.6
2018-12-07T16:35:00.000Z,6.5
2018-12-07T16:40:00.000Z,6.4
2018-12-07T16:45:00.000Z,6.4
2018-12-07T16:50:00.000Z,6.3
2018-12-07T16:55:00.000Z,6.3
2018-12-07T17:00:00.000Z,6.3
2018-12-07T17:05:00.000Z,6.3
2018-12-07T17:11:00.000Z,6.2
2018-12-07T17:16:00.000Z,6.2
2018-12-07T17:21:00.000Z,6.2
2018-12-07T17:26:00.000Z,6.1
2018-12-07T17:31:00.000Z,6.0
2018-12-07T17:36:00.000Z,6.0
2018-12-07T17:41:00.000Z,5.8
2018-12-07T17:46:00.000Z,5.8
2018-12-07T17:51:00.000Z,5.7
2018-12-07T17:56:00.000Z,5.7
2018-12-07T18:01:00.000Z,5.7
2018-12-07T18:06:00.000Z,5.7
2018-12-07T18:11:00.000Z,5.7
2018-12-07T18:16:00.000Z,5.8
2018-12-07T18:21:00.000Z,5.7
2018-12-07T18:26:00.000Z,5.7
2018-12-07T18:31:00.000Z,5.7
2018-12-07T18:36:00.000Z,5.7
2018-12-07T18:41:00.000Z,5.6
2018-12-07T18:46:00.000Z,5.6
2018-12-07T18:51:00.000Z,5.7
2018-12-07T18:56:00.000Z,5.7
2018-12-07T19:01:00.000Z,5.7
2018-12-07T19:06:00.000Z,5.8
2018-12-07T19:11:00.000Z,5.8
2018-12-07T19:16:00.000Z,5.8
2018-12-07T19:21:00.000Z,5.7
2018-12-07T19:26:00.000Z,5.7
2018-12-07T19:31:00.000Z,5.7
2018-12-07T19:36:00.000Z,5.6
2018-12-07T19:41:00.000Z,5.5
2018-12-07T19:46:00.000Z,5.5
2018-12-07T19:51:00.000Z,5.5
2018-12-07T19:56:00.000Z,5.5
2018-12-07T20:01:00.000Z,5.5
2018-12-07T20:06:00.000Z,5.4
2018-12-07T20:11:00.000Z,5.3
2018-12-07T20:16:00.000Z,5.3
2018-12-07T20:21:00.000Z,5.3
2018-12-07T20:26:00.000Z,5.4
2018-12-07T20:31:00.000Z,5.4
2018-12-07T20:36:00.000Z,5.4
2018-12-07T20:41:00.000Z,5.5
2018-12-07T20:46:00.000Z,5.5
2018-12-07T20:51:00.000Z,5.5
2018-12-07T20:56:00.000Z,5.5
2018-12-07T21:01:00.000Z,5.5
2018-12-07T21:06:00.000Z,5.5
2018-12-07T21:11:00.000Z,5.6
2018-12-07T21:16:00.000Z,5.5
2018-12-07T21:21:00.000Z,5.5
2018-12-07T21:26:00.000Z,5.5
2018-12-07T21:31:00.000Z,5.5
2018-12-07T21:36:00.000Z,5.5
2018-12-07T21:41:00.000Z,5.5
2018-12-07T21:47:00.000Z,5.3
2018-12-07T21:52:00.000Z,5.3
2018-12-07T21:57:00.000Z,5.1
2018-12-07T22:02:00.000Z,5.0
2018-12-07T22:07:00.000Z,5.1
2018-12-07T22:12:00.000Z,5.1
2018-12-07T22:17:00.000Z,5.2
2018-12-07T22:22:00.000Z,5.2
2018-12-07T22:27:00.000Z,5.3
2018-12-07T22:32:00.000Z,5.4
2018-12-07T22:37:00.000Z,5.4
2018-12-07T22:42:00.000Z,5.4
2018-12-07T22:47:00.000Z,5.3
2018-12-07T22:52:00.000Z,5.3
2018-12-07T22:57:00.000Z,5.3
2018-12-07T23:02:00.000Z,5.4
2018-12-07T23:07:00.000Z,5.4
2018-12-07T23:12:00.000Z,5.5
2018-12-07T23:17:00.000Z,5.5
2018-12-07T23:22:00.000Z,5.5
2018-12-07T23:27:00.000Z,5.6
2018-12-07T23:32:00.000Z,5.5
2018-12-07T23:37:00.000Z,5.5
2018-12-07T23:42:00.000Z,5.5
2018-12-07T23:47:00.000Z,5.6
2018-12-07T23:52:00.000Z,5.6
2018-12-07T23:57:00.000Z,5.6
